createdAt,value
2022-11-17T00:00:25.900Z,4.15
2022-11-17T00:05:27.911Z,4.22
2022-11-17T00:10:29.533Z,3.22
2022-11-17T00:15:31.196Z,3.40
2022-11-17T00:20:51.517Z,2.80
2022-11-17T00:25:53.117Z,4.30
2022-11-17T00:31:13.120Z,4.50
2022-11-17T00:36:15.015Z,4.63
2022-11-17T00:41:16.631Z,3.75
2022-11-17T00:46:18.213Z,2.95
2022-11-17T00:51:20.146Z,2.38
2022-11-17T00:56:22.081Z,2.55
2022-11-17T01:01:24.507Z,3.63
2022-11-17T01:06:26.304Z,2.78
2022-11-17T01:11:28.488Z,2.40
2022-11-17T01:16:31.364Z,3.47
2022-11-17T01:21:33.009Z,1.77
2022-11-17T01:26:36.392Z,3.30
2022-11-17T01:31:41.161Z,1.52
2022-11-17T01:37:02.244Z,2.70
2022-11-17T01:42:19.304Z,1.33
2022-11-17T01:47:26.345Z,1.83
2022-11-17T01:52:28.634Z,1.80
2022-11-17T01:57:36.976Z,1.30
2022-11-17T02:02:39.727Z,3.22
2022-11-17T02:07:42.645Z,2.95
2022-11-17T02:12:45.050Z,1.50
2022-11-17T02:17:46.869Z,2.17
2022-11-17T02:23:16.539Z,1.80
2022-11-17T02:28:28.206Z,1.10
2022-11-17T02:34:11.413Z,1.00
2022-11-17T02:39:41.627Z,1.35
2022-11-17T02:44:55.987Z,1.25
2022-11-17T02:50:01.868Z,1.33
2022-11-17T02:55:06.929Z,1.08
2022-11-17T03:00:19.573Z,1.77
2022-11-17T03:05:51.993Z,2.15
2022-11-17T03:11:02.898Z,2.80
2022-11-17T03:16:16.630Z,1.85
2022-11-17T03:21:22.305Z,2.50
2022-11-17T03:26:29.484Z,2.28
2022-11-17T03:31:31.551Z,1.00
2022-11-17T03:36:35.747Z,1.17
2022-11-17T03:41:42.347Z,2.65
2022-11-17T03:46:44.701Z,1.55
2022-11-17T03:51:46.604Z,3.10
2022-11-17T03:56:59.405Z,3.25
2022-11-17T04:02:01.058Z,2.20
2022-11-17T04:07:02.764Z,1.80
2022-11-17T04:12:23.209Z,3.50
2022-11-17T04:17:24.835Z,2.63
2022-11-17T04:22:26.532Z,1.60
2022-11-17T04:27:46.743Z,2.30
2022-11-17T04:32:48.509Z,2.88
2022-11-17T04:37:50.164Z,1.83
2022-11-17T04:42:51.765Z,2.38
2022-11-17T04:47:53.426Z,2.03
2022-11-17T04:52:55.022Z,2.30
2022-11-17T04:57:56.662Z,2.40
2022-11-17T05:02:58.341Z,2.38
2022-11-17T05:08:00.089Z,3.35
2022-11-17T05:13:20.420Z,2.33
2022-11-17T05:18:21.995Z,1.88
2022-11-17T05:23:42.303Z,2.38
2022-11-17T05:28:43.951Z,2.22
2022-11-17T05:33:45.615Z,3.28
2022-11-17T05:38:48.450Z,2.00
2022-11-17T05:43:50.579Z,3.47
2022-11-17T05:48:53.124Z,1.95
2022-11-17T05:53:54.782Z,2.67
2022-11-17T05:59:27.873Z,2.30
2022-11-17T06:04:30.633Z,2.78
2022-11-17T06:09:34.292Z,1.73
2022-11-17T06:14:37.803Z,3.55
2022-11-17T06:19:42.622Z,1.55
2022-11-17T06:24:44.955Z,3.25
2022-11-17T06:29:47.120Z,1.77
2022-11-17T06:34:55.179Z,1.80
2022-11-17T06:39:57.853Z,1.90
2022-11-17T06:44:59.487Z,1.80
2022-11-17T06:50:01.166Z,3.20
2022-11-17T06:55:02.945Z,3.10
2022-11-17T07:00:06.275Z,1.63
2022-11-17T07:05:08.248Z,3.10
2022-11-17T07:10:10.291Z,1.77
2022-11-17T07:15:11.917Z,1.20
2022-11-17T07:20:13.978Z,1.63
2022-11-17T07:25:21.064Z,1.70
2022-11-17T07:30:23.998Z,2.80
2022-11-17T07:35:25.683Z,1.85
2022-11-17T07:40:30.739Z,1.95
2022-11-17T07:45:32.564Z,1.70
2022-11-17T07:50:35.044Z,2.72
2022-11-17T07:55:36.651Z,2.88
2022-11-17T08:00:38.448Z,3.03
2022-11-17T08:05:43.703Z,2.83
2022-11-17T08:10:45.652Z,2.58
2022-11-17T08:15:47.329Z,1.63
2022-11-17T08:20:49.083Z,2.22
2022-11-17T08:25:50.742Z,2.13
2022-11-17T08:30:52.345Z,2.88
2022-11-17T08:35:58.253Z,2.80
2022-11-17T08:41:02.968Z,2.40
2022-11-17T08:46:04.880Z,1.90
2022-11-17T08:51:08.161Z,2.60
2022-11-17T08:56:11.659Z,2.40
2022-11-17T09:01:18.347Z,2.03
2022-11-17T09:06:20.227Z,1.50
2022-11-17T09:11:22.107Z,1.95
2022-11-17T09:16:25.416Z,1.95
2022-11-17T09:21:27.346Z,3.45
2022-11-17T09:26:28.981Z,3.08
2022-11-17T09:31:30.908Z,3.10
2022-11-17T09:36:33.093Z,3.13
2022-11-17T09:41:41.471Z,2.28
2022-11-17T09:46:54.997Z,2.95
2022-11-17T09:51:58.550Z,2.45
2022-11-17T09:57:01.012Z,2.53
2022-11-17T10:02:02.836Z,2.30
2022-11-17T10:07:04.749Z,2.78
2022-11-17T10:12:27.763Z,2.28
2022-11-17T10:17:29.603Z,2.15
2022-11-17T10:22:36.285Z,2.47
2022-11-17T10:27:44.258Z,3.85
2022-11-17T10:32:57.167Z,2.10
2022-11-17T10:38:00.768Z,2.05
2022-11-17T10:43:14.585Z,4.00
2022-11-17T10:48:25.012Z,3.17
2022-11-17T10:53:30.280Z,2.28
2022-11-17T10:58:33.612Z,3.40
2022-11-17T11:03:36.092Z,3.10
2022-11-17T11:08:56.363Z,2.75
2022-11-17T11:14:01.408Z,2.10
2022-11-17T11:19:03.100Z,2.83
2022-11-17T11:24:07.707Z,2.35
2022-11-17T11:29:23.129Z,2.30
2022-11-17T11:34:52.964Z,3.55
2022-11-17T11:40:15.588Z,3.33
2022-11-17T11:45:43.348Z,2.40
2022-11-17T11:50:58.240Z,2.53
2022-11-17T11:56:10.785Z,2.90
2022-11-17T12:01:13.417Z,2.72
2022-11-17T12:06:36.795Z,2.70
2022-11-17T12:11:59.090Z,1.73
2022-11-17T12:17:23.387Z,2.17
2022-11-17T12:22:33.911Z,2.92
2022-11-17T12:27:35.613Z,3.70
2022-11-17T12:32:49.159Z,2.75
2022-11-17T12:38:23.220Z,2.85
2022-11-17T12:43:26.510Z,2.63
2022-11-17T12:48:36.229Z,4.53
2022-11-17T12:53:39.453Z,4.05
2022-11-17T12:58:59.959Z,3.63
2022-11-17T13:04:01.604Z,3.78
2022-11-17T13:09:11.999Z,2.90
2022-11-17T13:14:16.204Z,3.80
2022-11-17T13:19:30.390Z,4.57
2022-11-17T13:24:35.251Z,3.40
2022-11-17T13:29:37.838Z,4.60
2022-11-17T13:34:49.834Z,3.33
2022-11-17T13:40:02.558Z,4.93
2022-11-17T13:45:05.270Z,5.35
2022-11-17T13:50:31.882Z,4.50
2022-11-17T13:55:34.107Z,5.10
2022-11-17T14:00:35.870Z,4.40
2022-11-17T14:05:37.471Z,3.85
2022-11-17T14:10:39.735Z,3.60
2022-11-17T14:15:42.295Z,3.67
2022-11-17T14:20:43.927Z,4.57
2022-11-17T14:25:50.264Z,3.85
2022-11-17T14:30:54.050Z,3.35
2022-11-17T14:35:58.463Z,3.20
2022-11-17T14:41:00.211Z,4.55
2022-11-17T14:46:02.846Z,3.20
2022-11-17T14:51:04.577Z,2.97
2022-11-17T14:56:09.970Z,2.17
2022-11-17T15:01:15.581Z,3.95
2022-11-17T15:06:20.165Z,2.72
2022-11-17T15:11:22.125Z,3.00
2022-11-17T15:16:23.771Z,2.88
2022-11-17T15:21:25.879Z,4.57
2022-11-17T15:26:27.601Z,4.22
2022-11-17T15:31:29.787Z,3.25
2022-11-17T15:36:32.069Z,2.88
2022-11-17T15:41:33.749Z,4.25
2022-11-17T15:46:35.799Z,4.40
2022-11-17T15:51:37.534Z,3.90
2022-11-17T15:56:39.210Z,4.72
2022-11-17T16:01:41.132Z,3.35
2022-11-17T16:06:44.595Z,2.92
2022-11-17T16:11:46.446Z,3.40
2022-11-17T16:16:48.247Z,4.63
2022-11-17T16:21:50.059Z,3.83
2022-11-17T16:26:51.893Z,4.47
2022-11-17T16:31:55.320Z,4.15
2022-11-17T16:36:56.980Z,4.38
2022-11-17T16:42:00.198Z,4.18
2022-11-17T16:47:01.863Z,4.97
2022-11-17T16:52:03.501Z,3.97
2022-11-17T16:57:05.153Z,4.60
2022-11-17T17:02:06.795Z,5.57
2022-11-17T17:07:08.482Z,4.43
2022-11-17T17:12:10.470Z,4.47
2022-11-17T17:17:12.166Z,5.55
2022-11-17T17:22:13.761Z,4.95
2022-11-17T17:27:15.630Z,6.43
2022-11-17T17:32:17.274Z,4.10
2022-11-17T17:37:18.960Z,4.07
2022-11-17T17:42:20.569Z,6.35
2022-11-17T17:47:23.237Z,4.18
2022-11-17T17:52:24.895Z,4.05
2022-11-17T17:57:29.873Z,5.53
2022-11-17T18:02:34.615Z,4.13
2022-11-17T18:07:36.300Z,4.30
2022-11-17T18:12:38.056Z,5.82
2022-11-17T18:17:39.742Z,4.15
2022-11-17T18:22:41.383Z,3.97
2022-11-17T18:27:43.320Z,5.75
2022-11-17T18:32:45.018Z,5.18
2022-11-17T18:37:46.615Z,6.22
2022-11-17T18:42:48.253Z,6.30
2022-11-17T18:47:49.902Z,4.85
2022-11-17T18:52:52.082Z,5.00
2022-11-17T18:57:53.731Z,4.68
2022-11-17T19:02:55.413Z,5.68
2022-11-17T19:07:57.361Z,4.65
2022-11-17T19:12:58.989Z,6.57
2022-11-17T19:18:00.626Z,5.57
2022-11-17T19:23:02.448Z,7.13
2022-11-17T19:28:04.775Z,5.28
2022-11-17T19:33:06.448Z,6.03
2022-11-17T19:38:08.059Z,5.55
2022-11-17T19:43:09.690Z,6.45
2022-11-17T19:48:11.297Z,5.60
2022-11-17T19:53:12.993Z,5.13
2022-11-17T19:58:16.674Z,6.90
2022-11-17T20:03:18.730Z,6.72
2022-11-17T20:08:20.412Z,6.15
2022-11-17T20:13:22.046Z,5.18
2022-11-17T20:18:23.674Z,6.55
2022-11-17T20:23:25.398Z,5.85
2022-11-17T20:28:27.273Z,7.55
2022-11-17T20:33:30.061Z,7.18
2022-11-17T20:38:32.912Z,8.20
2022-11-17T20:43:35.121Z,7.20
2022-11-17T20:48:36.806Z,7.63
2022-11-17T20:53:39.500Z,6.25
2022-11-17T20:58:41.111Z,7.00
2022-11-17T21:03:42.947Z,6.80
2022-11-17T21:08:45.468Z,9.65
2022-11-17T21:13:47.150Z,7.70
2022-11-17T21:18:48.982Z,8.55
2022-11-17T21:23:54.047Z,9.15
2022-11-17T21:28:57.636Z,7.10
2022-11-17T21:34:04.453Z,8.60
2022-11-17T21:39:06.085Z,9.25
2022-11-17T21:44:07.700Z,8.43
2022-11-17T21:49:09.416Z,9.40
2022-11-17T21:54:11.088Z,10.18
2022-11-17T21:59:13.344Z,7.65
2022-11-17T22:04:15.854Z,7.97
2022-11-17T22:09:17.694Z,9.15
2022-11-17T22:14:20.288Z,10.13
2022-11-17T22:19:24.162Z,9.25
2022-11-17T22:24:25.985Z,11.02
2022-11-17T22:29:27.914Z,11.38
2022-11-17T22:34:29.582Z,8.98
2022-11-17T22:39:31.203Z,11.02
2022-11-17T22:44:32.835Z,9.30
2022-11-17T22:49:34.459Z,9.63
2022-11-17T22:54:36.118Z,11.25
2022-11-17T22:59:37.810Z,9.85
2022-11-17T23:04:39.539Z,8.90
2022-11-17T23:09:41.140Z,9.30
2022-11-17T23:14:42.749Z,11.02
2022-11-17T23:19:44.406Z,9.75
2022-11-17T23:24:46.088Z,11.93
2022-11-17T23:29:47.805Z,10.63
2022-11-17T23:34:49.417Z,10.82
2022-11-17T23:39:51.047Z,10.93
2022-11-17T23:44:52.721Z,10.80
2022-11-17T23:49:54.346Z,11.27
2022-11-17T23:54:55.960Z,10.77
2022-11-17T23:59:57.570Z,8.95
